Station info - map view · info · telemetry · weather · raw · status · beacons · messages · bulletins · browse · moving · my account
Callsign, ship name or locator: Clear       
It is possible to search using wildcards (*?) after a prefix. Example: OH*
APRS station DO8FDH-1 - show graphs
Map loading...
Mic-E message: Committed
Location: 52°15.00' N 13°35.00' E - locator JO62SG90XA - show map - static map
2.0 miles East bearing 111° from Mittenwalde, Brandenburg, Germany [?]
2.8 miles West bearing 270° from Bestensee, Brandenburg, Germany
20.3 miles South bearing 159° from Berlin, Berlin, Germany
81.4 miles Northeast bearing 39° from Leipzig, Direktionsbezirk Leipzig, Saxony, Germany
Last position: 2019-03-21 05:49:26 EDT (3h59m ago)
2019-03-21 10:49:26 CET local time at Mittenwalde, Germany [?]
Altitude: 131 ft
Position ambiguous: Precision reduced at transmitter by 3 digits, position resolution approximately 11.5 miles.
Course: 266°
Speed: 5 MPH
Device: Yaesu: FTM-400DR (rig)
Last path: DO8FDH-1>5RQZLL via WIDE1-1,WIDE2-1,qAR,DB0FUZ (good)
Positions stored: 909
Stations near current position of DO8FDH-1 - show more
callsign distance last heard - EDT      callsign distance last heard - EDT
DC7AP0.9 miles 243°2019-03-08 16:42:50 DC7AP-130.9 miles 243°2019-03-21 09:45:11
EDDB1-11.7 miles 66°2019-03-18 19:00:33 SONDE2-11.7 miles 66°2019-03-21 09:33:03
DL7JOM-91.9 miles 102°2019-03-19 04:31:41 DG2RON-132.8 miles 180°2019-03-18 17:37:23
DG2RON-92.8 miles 180°2019-03-18 15:00:56 PS-DG2RON2.8 miles 180°2019-03-21 09:02:10
DH1RSP-93.7 miles 12°2019-03-21 04:51:26 DH7TB-153.7 miles 10°2019-03-21 09:42:25
DH7TB-103.7 miles 10°2019-03-21 09:42:28 DB5JH-93.9 miles 258°2019-03-20 12:25:38
DL7VHS-54.7 miles 9°2019-03-13 02:37:42 DO5JK4.7 miles 18°2019-03-21 09:40:53
DO5JK-54.7 miles 18°2019-03-21 07:18:16 DO9BAU-25.2 miles 15°2019-03-16 12:42:55
DL1BFF-95.7 miles 10°2019-03-21 05:23:51 DE9BAU-155.9 miles 11°2019-03-18 18:34:51
DE9BAU-105.9 miles 11°2019-03-18 18:54:14 6152606.1 miles 310°2019-03-04 16:37:31
Stations which heard DO8FDH-1 directly on radio –
callsign pkts first heard - EDT last heard longest (tx => rx) longest at - EDT
DB0KX-2 20 2019-03-15 19:42:28 2019-03-17 12:31:26 JO31PB > JO31EG 41.4 miles 290° 2019-03-15 19:49:14
DB0GPS 1 2019-03-15 17:50:08 2019-03-15 17:50:08 JO42MG > JO41PU 29.1 miles 159° 2019-03-15 17:50:08
DB0END 12 2019-03-15 19:26:23 2019-03-17 13:35:48 JO31XN > JO31PH 32.1 miles 234° 2019-03-17 13:35:48
DM2HB 2 2019-03-15 19:01:21 2019-03-17 13:50:15 JO31XN > JO41EQ 20.8 miles 69° 2019-03-15 19:01:21
DB0FUZ 3 2019-03-15 14:41:10 2019-03-21 05:49:26 JO62MG > JO62TK 24.8 miles 59° 2019-03-15 14:46:55
DB0RHB 8 2019-03-15 19:36:10 2019-03-17 12:32:53 JO31PG > JO30LN 48.3 miles 196° 2019-03-17 12:32:53
DB0NY 7 2019-03-15 19:18:12 2019-03-17 13:17:58 JO31VN > JO31TB 36.4 miles 190° 2019-03-17 13:17:58
DB0KOE 29 2019-03-15 19:43:00 2019-03-17 12:16:42 JO31PG > JO30LW 25.3 miles 211° 2019-03-15 19:43:00
DO7AD 4 2019-03-15 16:24:46 2019-03-17 15:49:00 JO52PG > JO51NR 35.8 miles 186° 2019-03-17 15:49:00
DB0GSH 16 2019-03-15 16:20:47 2019-03-17 15:53:01 JO52RG > JO51EV 49.0 miles 241° 2019-03-17 15:53:01
DB0DRI 8 2019-03-15 17:46:43 2019-03-17 14:38:16 JO42RG > JO41MS 36.2 miles 203° 2019-03-17 14:38:16
DL8KZ 14 2019-03-15 20:13:53 2019-03-17 12:26:08 JO31PG > JO30PQ 39.2 miles 179° 2019-03-17 12:26:08
DB0HAT 14 2019-03-15 19:10:42 2019-03-17 13:48:16 JO31RK > JO31VQ 24.0 miles 41° 2019-03-17 12:49:30
DB0DAM 4 2019-03-15 18:01:50 2019-03-17 14:34:22 JO31XS > JO42CN 57.2 miles 12° 2019-03-15 18:55:08
DB0UHC 1 2019-03-17 09:46:56 2019-03-17 09:46:56 JO30LW > JO31HB 16.7 miles 306° 2019-03-17 09:46:56
DL9OBM-10 1 2019-03-17 15:06:45 2019-03-17 15:06:45 JO52AK > JO52BM 8.4 miles 21° 2019-03-17 15:06:45
DO1TNP-10 2 2019-03-17 15:08:31 2019-03-17 15:16:04 JO52FG > JO52CI 12.0 miles 302° 2019-03-17 15:16:04
DB0ZV 4 2019-03-17 13:02:00 2019-03-17 13:22:28 JO31VN > JO31RJ 18.0 miles 218° 2019-03-17 13:22:28
DB0ROD 32 2019-03-15 17:15:13 2019-03-17 14:51:07 JO42JB > JO42QH 31.3 miles 62° 2019-03-17 14:17:06
DB0DOS-10 1 2019-03-17 14:23:05 2019-03-17 14:23:05 JO42LG > JO42AE 37.5 miles 263° 2019-03-17 14:23:05
DK1SR 8 2019-03-15 18:10:22 2019-03-17 14:16:42 JO42LG > JO41HX 21.3 miles 212° 2019-03-15 18:10:22
DB0FBB 1 2019-03-17 13:09:00 2019-03-17 13:09:00 JO31SK > JO31RM 8.4 miles 334° 2019-03-17 13:09:00
DB0DAM-10 2 2019-03-15 17:59:06 2019-03-17 14:33:29 JO42PG > JO42CN 48.7 miles 296° 2019-03-17 14:33:29
DK5DC 1 2019-03-17 13:40:42 2019-03-17 13:40:42 JO31XS > JO31WN 12.6 miles 182° 2019-03-17 13:40:42
DH6WS-10 1 2019-03-15 18:42:02 2019-03-15 18:42:02 JO41DW > JO41DU 5.2 miles 167° 2019-03-15 18:42:02
DB0LOS 2 2019-03-15 14:26:25 2019-03-15 14:27:40 JO62PK > JO72AH 33.9 miles 101° 2019-03-15 14:27:40
DB0EIR-10 1 2019-03-15 19:34:10 2019-03-15 19:34:10 JO31PG > JO31PH 5.6 miles 7° 2019-03-15 19:34:10
DB0RNG 2 2019-03-15 17:45:16 2019-03-17 14:34:16 JO42MG > JO43UA 58.3 miles 25° 2019-03-15 17:45:16
DH0BRO-1 14 2019-03-15 14:39:09 2019-03-17 16:52:03 JO62GK > JO62LI 16.7 miles 103° 2019-03-17 16:35:05
DB0NLH 21 2019-03-15 17:52:55 2019-03-17 14:19:57 JO31RK > JO42DC 60.7 miles 37° 2019-03-15 19:31:24
DH7WX-1 1 2019-03-15 14:30:04 2019-03-15 14:30:04 JO62PK > JO62OM 6.3 miles 349° 2019-03-15 14:30:04
DG8AAC-10 2 2019-03-15 16:43:49 2019-03-17 15:22:06 JO52GG > JO52IJ 11.8 miles 29° 2019-03-17 15:22:06
DF4DR-10 4 2019-03-17 12:49:28 2019-03-17 13:19:56 JO31VN > JO31SM 11.0 miles 246° 2019-03-17 13:19:56
DB0ENL-10 4 2019-03-17 12:39:18 2019-03-17 13:05:44 JO31SK > JO31QG 13.0 miles 229° 2019-03-17 13:05:44
DB0NIS-10 26 2019-03-15 19:46:18 2019-03-17 12:28:23 JO31PG > JO30EP 55.2 miles 222° 2019-03-17 12:28:23
DO2JMG-10 4 2019-03-15 18:23:36 2019-03-17 14:08:14 JO41GW > JO42EB 13.4 miles 325° 2019-03-17 14:05:19
DM0MGB 3 2019-03-15 15:48:16 2019-03-15 16:01:19 JO52VG > JO52TD 7.9 miles 222° 2019-03-15 16:01:19
DB0NX-10 8 2019-03-15 19:15:19 2019-03-17 13:27:27 JO31VN > JO31TH 19.7 miles 197° 2019-03-17 13:27:27
DB0LY 3 2019-03-17 16:57:17 2019-03-17 17:16:39 JO62LN > JO63PF 45.9 miles 19° 2019-03-17 16:57:17
DB0OHV 1 2019-03-17 17:19:39 2019-03-17 17:19:39 JO62PS > JO62PQ 4.6 miles 180° 2019-03-17 17:19:39
DG4DAA-13 12 2019-03-15 18:48:02 2019-03-17 13:39:24 JO31RK > JO31XO 26.9 miles 59° 2019-03-17 12:47:12
DO0FWH 22 2019-03-15 15:05:57 2019-03-17 16:25:35 JO52RG > JO62AG 26.1 miles 88° 2019-03-17 15:54:15
DB0TVH-10 21 2019-03-15 17:01:51 2019-03-17 15:04:45 JO42PG > JO42UJ 22.7 miles 66° 2019-03-17 14:36:16
DB0XO 1 2019-03-17 09:38:16 2019-03-17 09:38:16 JO30LW > JO30IW 9.3 miles 287° 2019-03-17 09:38:16
DG8AAC-15 2 2019-03-17 15:30:42 2019-03-17 15:31:13 JO52JG > JO52IJ 10.3 miles 353° 2019-03-17 15:31:13
DB0PDM 13 2019-03-15 14:37:14 2019-03-15 14:55:28 JO62LG > JO62MI 10.0 miles 39° 2019-03-15 14:55:28
DB0BI-10 6 2019-03-15 18:19:35 2019-03-17 14:00:00 JO31XS > JO42FA 30.0 miles 52° 2019-03-17 13:42:42
DH7LK-5 4 2019-03-15 14:37:09 2019-03-15 14:47:54 JO62MG > JO62NK 12.4 miles 15° 2019-03-15 14:47:54
DB0ZOD 7 2019-03-15 14:24:49 2019-03-15 14:45:38 JO62MG > JO62RM 23.9 miles 38° 2019-03-15 14:45:38
DB0LUD 5 2019-03-15 14:35:23 2019-03-15 14:57:35 JO62LG > JO62PH 15.8 miles 73° 2019-03-15 14:57:35
DL5OCD-7 5 2019-03-15 16:57:51 2019-03-17 15:10:03 JO52DK > JO42XG 14.6 miles 232° 2019-03-17 15:10:03
DO1KMR-10 1 2019-03-15 17:21:28 2019-03-15 17:21:28 JO42SK > JO42TJ 1.1 miles 111° 2019-03-15 17:21:28
DB0BBB 6 2019-03-07 13:04:34 2019-03-18 15:55:19 JO62LN > JO62SQ 28.6 miles 77° 2019-03-17 16:59:17
DB0TGO-15 4 2019-03-15 14:25:51 2019-03-17 16:49:32 JO62LK > JO62ON 17.0 miles 51° 2019-03-17 16:49:32
DB0OI 17 2019-03-15 16:31:51 2019-03-17 15:38:25 JO52LG > JO52GG 16.6 miles 276° 2019-03-17 15:38:25
DL0HC 1 2019-03-17 12:37:42 2019-03-17 12:37:42 JO31PG > JO31OJ 11.1 miles 352° 2019-03-17 12:37:42
DF2HS-10 23 2019-03-15 17:18:03 2019-03-15 18:38:02 JO42VK > JO42IH 45.0 miles 260° 2019-03-15 17:18:03
DB0HSK 18 2019-03-15 18:33:39 2019-03-17 14:04:02 JO41GW > JO41DJ 38.7 miles 199° 2019-03-17 14:04:02
DM2DXG-4 3 2019-03-15 15:56:27 2019-03-15 16:16:47 JO52VG > JO51NW 34.2 miles 229° 2019-03-15 15:56:27
DB0LSB-1 4 2019-03-15 16:12:10 2019-03-17 16:02:08 JO52VG > JO51RS 34.3 miles 199° 2019-03-17 16:02:08
DG1YHR-10 12 2019-03-15 18:14:13 2019-03-17 14:14:33 JO41AS > JO42HB 31.3 miles 50° 2019-03-17 13:46:14
DG5OBY-1 3 2019-03-15 17:46:03 2019-03-17 14:27:29 JO42MG > JO42MG 1.3 miles 288° 2019-03-17 14:27:29
DK8HC-2 1 2019-03-17 14:44:16 2019-03-17 14:44:16 JO42RK > JO42TH 12.3 miles 126° 2019-03-17 14:44:16

Only position packets which were originated by the station are shown here. The range statistics show some extra long hops, because some digipeaters do not correctly add themselves to the digipeater path. Please check the raw packets.
About this site
This page shows real-time information collected from the Automatic Position Reporting System Internet network (APRS-IS). APRS is used by amateur (ham) radio operators to transmit real-time position information, weather data, telemetry and messages over the radio. A vehicle equipped with a GPS receiver, a VHF transmitter or HF transceiver and a small computer device called a tracker transmits it's location, speed and course in a small data packet, which is then received by a nearby iGate receiving site which forwards the packet on the Internet. Systems connected to the Internet can send information on the APRS-IS without a radio transmitter, or collect and display information transmitted anywhere in the world.
FAQ · Blog · Discussion group · Linking to aprs.fi · AIS sites · Service status · Database statistics · Advertising on aprs.fi · Technical details · API · Change log · Planned changes · Credits and thanks · Terms Of Service · iPhone/iPad APRS